sensor_id;sensor_type;location;lat;lon;timestamp;pressure;altitude;pressure_sealevel;temperature;humidity
30724;BME280;17473;52.286;20.930;2022-09-01T00:02:28;100779.06;;;15.59;66.92
30724;BME280;17473;52.286;20.930;2022-09-01T00:04:56;100779.00;;;15.57;66.93
30724;BME280;17473;52.286;20.930;2022-09-01T00:07:52;100783.41;;;15.55;67.00
30724;BME280;17473;52.286;20.930;2022-09-01T00:10:47;100778.88;;;15.51;67.13
30724;BME280;17473;52.286;20.930;2022-09-01T00:13:41;100779.19;;;15.67;66.90
30724;BME280;17473;52.286;20.930;2022-09-01T00:16:36;100787.72;;;15.50;67.28
30724;BME280;17473;52.286;20.930;2022-09-01T00:20:04;100776.84;;;15.38;67.64
30724;BME280;17473;52.286;20.930;2022-09-01T00:22:31;100784.31;;;15.56;67.18
30724;BME280;17473;52.286;20.930;2022-09-01T00:25:27;100778.59;;;15.36;67.77
30724;BME280;17473;52.286;20.930;2022-09-01T00:28:22;100778.53;;;15.34;67.88
30724;BME280;17473;52.286;20.930;2022-09-01T00:31:17;100783.00;;;15.35;67.91
30724;BME280;17473;52.286;20.930;2022-09-01T00:34:13;100781.91;;;15.24;68.34
30724;BME280;17473;52.286;20.930;2022-09-01T00:37:08;100776.97;;;15.44;67.85
30724;BME280;17473;52.286;20.930;2022-09-01T00:40:04;100776.50;;;15.21;68.36
30724;BME280;17473;52.286;20.930;2022-09-01T00:42:59;100780.88;;;15.17;68.77
30724;BME280;17473;52.286;20.930;2022-09-01T00:45:54;100777.03;;;15.04;69.04
30724;BME280;17473;52.286;20.930;2022-09-01T00:52:26;100774.03;;;14.89;69.77
30724;BME280;17473;52.286;20.930;2022-09-01T00:55:29;100773.13;;;14.86;69.75
30724;BME280;17473;52.286;20.930;2022-09-01T00:58:25;100776.56;;;14.84;70.13
30724;BME280;17473;52.286;20.930;2022-09-01T01:01:19;100769.75;;;14.95;69.56
30724;BME280;17473;52.286;20.930;2022-09-01T01:04:14;100772.25;;;14.88;69.80
30724;BME280;17473;52.286;20.930;2022-09-01T01:06:45;100773.88;;;14.81;70.20
30724;BME280;17473;52.286;20.930;2022-09-01T01:09:18;100776.56;;;14.82;70.32
30724;BME280;17473;52.286;20.930;2022-09-01T01:12:13;100773.13;;;14.86;69.79
30724;BME280;17473;52.286;20.930;2022-09-01T01:15:12;100775.78;;;14.86;70.01
30724;BME280;17473;52.286;20.930;2022-09-01T01:18:06;100777.00;;;14.64;70.75
30724;BME280;17473;52.286;20.930;2022-09-01T01:21:39;100782.00;;;14.50;71.37
30724;BME280;17473;52.286;20.930;2022-09-01T01:24:32;100778.28;;;14.80;70.38
30724;BME280;17473;52.286;20.930;2022-09-01T01:27:00;100782.31;;;14.64;70.79
30724;BME280;17473;52.286;20.930;2022-09-01T01:29:34;100773.16;;;14.51;71.03
30724;BME280;17473;52.286;20.930;2022-09-01T01:32:32;100766.16;;;14.55;71.07
30724;BME280;17473;52.286;20.930;2022-09-01T01:35:26;100769.47;;;14.46;71.53
30724;BME280;17473;52.286;20.930;2022-09-01T01:38:22;100771.41;;;14.53;71.34
30724;BME280;17473;52.286;20.930;2022-09-01T01:41:18;100764.88;;;14.37;71.83
30724;BME280;17473;52.286;20.930;2022-09-01T01:44:17;100769.16;;;14.32;72.38
30724;BME280;17473;52.286;20.930;2022-09-01T01:47:12;100761.00;;;14.24;72.30
30724;BME280;17473;52.286;20.930;2022-09-01T01:50:07;100768.19;;;14.30;72.39
30724;BME280;17473;52.286;20.930;2022-09-01T01:53:06;100769.22;;;14.34;72.12
30724;BME280;17473;52.286;20.930;2022-09-01T01:56:01;100770.19;;;14.37;72.00
30724;BME280;17473;52.286;20.930;2022-09-01T01:58:56;100772.84;;;14.39;71.91
30724;BME280;17473;52.286;20.930;2022-09-01T02:01:52;100781.53;;;14.32;72.19
30724;BME280;17473;52.286;20.930;2022-09-01T02:04:47;100769.31;;;14.38;72.08
30724;BME280;17473;52.286;20.930;2022-09-01T02:07:41;100785.41;;;14.45;71.42
30724;BME280;17473;52.286;20.930;2022-09-01T02:10:44;100770.31;;;14.44;71.32
30724;BME280;17473;52.286;20.930;2022-09-01T02:13:39;100767.63;;;14.42;71.46
30724;BME280;17473;52.286;20.930;2022-09-01T02:16:35;100767.63;;;14.42;71.17
30724;BME280;17473;52.286;20.930;2022-09-01T02:19:30;100760.31;;;14.33;71.60
30724;BME280;17473;52.286;20.930;2022-09-01T02:22:24;100762.94;;;14.32;71.50
30724;BME280;17473;52.286;20.930;2022-09-01T02:24:51;100766.47;;;14.31;71.58
30724;BME280;17473;52.286;20.930;2022-09-01T02:27:46;100765.38;;;14.22;71.77
30724;BME280;17473;52.286;20.930;2022-09-01T02:30:51;100765.75;;;14.01;72.54
30724;BME280;17473;52.286;20.930;2022-09-01T02:33:48;100764.53;;;13.88;72.99
30724;BME280;17473;52.286;20.930;2022-09-01T02:36:49;100754.91;;;13.93;72.43
30724;BME280;17473;52.286;20.930;2022-09-01T02:39:44;100760.22;;;13.93;72.68
30724;BME280;17473;52.286;20.930;2022-09-01T02:42:39;100764.56;;;13.90;72.92
30724;BME280;17473;52.286;20.930;2022-09-01T02:45:37;100768.16;;;13.92;72.68
30724;BME280;17473;52.286;20.930;2022-09-01T02:48:38;100766.63;;;13.68;73.55
30724;BME280;17473;52.286;20.930;2022-09-01T02:51:33;100762.22;;;13.69;74.00
30724;BME280;17473;52.286;20.930;2022-09-01T02:54:30;100772.19;;;13.77;73.08
30724;BME280;17473;52.286;20.930;2022-09-01T02:57:25;100771.94;;;13.68;73.63
30724;BME280;17473;52.286;20.930;2022-09-01T03:00:23;100772.03;;;13.71;73.62
30724;BME280;17473;52.286;20.930;2022-09-01T03:03:34;100777.16;;;13.65;73.87
30724;BME280;17473;52.286;20.930;2022-09-01T03:06:29;100775.34;;;13.63;73.95
30724;BME280;17473;52.286;20.930;2022-09-01T03:09:25;100780.28;;;13.50;74.49
30724;BME280;17473;52.286;20.930;2022-09-01T03:12:19;100777.22;;;13.36;75.01
30724;BME280;17473;52.286;20.930;2022-09-01T03:15:14;100773.03;;;13.43;74.88
30724;BME280;17473;52.286;20.930;2022-09-01T03:18:10;100773.56;;;13.33;75.55
30724;BME280;17473;52.286;20.930;2022-09-01T03:21:06;100776.97;;;13.28;75.38
30724;BME280;17473;52.286;20.930;2022-09-01T03:39:43;100792.16;;;13.04;76.00
30724;BME280;17473;52.286;20.930;2022-09-01T03:42:11;100792.31;;;13.08;76.14
30724;BME280;17473;52.286;20.930;2022-09-01T03:44:45;100795.00;;;13.10;76.18
30724;BME280;17473;52.286;20.930;2022-09-01T03:47:14;100791.50;;;13.11;75.95
30724;BME280;17473;52.286;20.930;2022-09-01T03:50:15;100780.81;;;13.08;75.76
30724;BME280;17473;52.286;20.930;2022-09-01T03:53:20;100792.00;;;12.97;76.07
30724;BME280;17473;52.286;20.930;2022-09-01T03:56:15;100782.22;;;12.95;76.32
30724;BME280;17473;52.286;20.930;2022-09-01T03:59:10;100784.34;;;13.08;75.56
30724;BME280;17473;52.286;20.930;2022-09-01T04:02:10;100782.66;;;13.10;75.79
30724;BME280;17473;52.286;20.930;2022-09-01T04:05:04;100779.91;;;13.07;75.34
30724;BME280;17473;52.286;20.930;2022-09-01T04:08:04;100779.69;;;12.99;76.01
30724;BME280;17473;52.286;20.930;2022-09-01T04:11:03;100782.00;;;13.19;75.03
30724;BME280;17473;52.286;20.930;2022-09-01T04:13:59;100784.19;;;13.02;75.65
30724;BME280;17473;52.286;20.930;2022-09-01T04:16:53;100781.91;;;14.11;72.11
30724;BME280;17473;52.286;20.930;2022-09-01T04:20:08;100784.44;;;17.26;61.00
30724;BME280;17473;52.286;20.930;2022-09-01T04:23:02;100775.19;;;18.80;55.34
30724;BME280;17473;52.286;20.930;2022-09-01T04:26:08;100768.56;;;20.12;50.74
30724;BME280;17473;52.286;20.930;2022-09-01T04:29:03;100765.66;;;21.34;46.82
30724;BME280;17473;52.286;20.930;2022-09-01T04:32:06;100765.41;;;21.84;45.90
30724;BME280;17473;52.286;20.930;2022-09-01T04:34:36;100766.91;;;23.16;42.81
30724;BME280;17473;52.286;20.930;2022-09-01T04:37:31;100773.47;;;23.65;41.15
30724;BME280;17473;52.286;20.930;2022-09-01T04:40:57;100765.72;;;24.57;39.42
30724;BME280;17473;52.286;20.930;2022-09-01T04:43:24;100771.78;;;25.17;38.07
30724;BME280;17473;52.286;20.930;2022-09-01T04:45:52;100767.84;;;25.74;36.67
30724;BME280;17473;52.286;20.930;2022-09-01T04:48:50;100770.00;;;25.99;36.16
30724;BME280;17473;52.286;20.930;2022-09-01T04:51:50;100773.38;;;27.13;34.21
30724;BME280;17473;52.286;20.930;2022-09-01T04:54:45;100768.97;;;29.04;31.54
30724;BME280;17473;52.286;20.930;2022-09-01T04:57:44;100763.78;;;30.36;29.39
30724;BME280;17473;52.286;20.930;2022-09-01T05:00:40;100759.19;;;30.59;28.65
30724;BME280;17473;52.286;20.930;2022-09-01T05:03:34;100762.22;;;31.72;27.11
30724;BME280;17473;52.286;20.930;2022-09-01T05:06:29;100768.50;;;31.55;27.39
30724;BME280;17473;52.286;20.930;2022-09-01T05:09:29;100764.88;;;31.54;27.46
30724;BME280;17473;52.286;20.930;2022-09-01T05:12:23;100764.50;;;32.00;26.69
30724;BME280;17473;52.286;20.930;2022-09-01T05:15:18;100769.38;;;32.66;25.98
30724;BME280;17473;52.286;20.930;2022-09-01T05:18:15;100761.13;;;33.68;24.63
30724;BME280;17473;52.286;20.930;2022-09-01T05:21:19;100763.69;;;34.94;23.33
30724;BME280;17473;52.286;20.930;2022-09-01T05:24:18;100759.91;;;34.67;23.62
30724;BME280;17473;52.286;20.930;2022-09-01T05:27:14;100768.22;;;35.24;22.52
30724;BME280;17473;52.286;20.930;2022-09-01T05:30:10;100769.50;;;35.90;22.26
30724;BME280;17473;52.286;20.930;2022-09-01T05:33:05;100770.44;;;36.71;20.95
30724;BME280;17473;52.286;20.930;2022-09-01T05:36:05;100760.75;;;37.55;19.91
30724;BME280;17473;52.286;20.930;2022-09-01T05:38:34;100765.84;;;37.23;20.48
30724;BME280;17473;52.286;20.930;2022-09-01T05:41:13;100761.22;;;37.73;19.97
30724;BME280;17473;52.286;20.930;2022-09-01T05:43:46;100766.75;;;36.97;20.72
30724;BME280;17473;52.286;20.930;2022-09-01T05:46:42;100760.38;;;36.97;20.51
30724;BME280;17473;52.286;20.930;2022-09-01T05:49:40;100754.63;;;38.49;19.02
30724;BME280;17473;52.286;20.930;2022-09-01T05:52:38;100757.94;;;38.05;19.77
30724;BME280;17473;52.286;20.930;2022-09-01T05:55:36;100756.25;;;38.98;18.38
30724;BME280;17473;52.286;20.930;2022-09-01T05:58:11;100758.75;;;38.19;19.31
30724;BME280;17473;52.286;20.930;2022-09-01T06:00:42;100755.59;;;39.63;18.08
30724;BME280;17473;52.286;20.930;2022-09-01T06:03:10;100757.63;;;39.72;18.33
30724;BME280;17473;52.286;20.930;2022-09-01T06:05:37;100756.28;;;40.86;17.14
30724;BME280;17473;52.286;20.930;2022-09-01T06:08:06;100762.19;;;39.28;17.72
30724;BME280;17473;52.286;20.930;2022-09-01T06:10:37;100751.59;;;40.22;17.58
30724;BME280;17473;52.286;20.930;2022-09-01T06:13:07;100753.97;;;40.48;17.12
30724;BME280;17473;52.286;20.930;2022-09-01T06:15:37;100756.13;;;39.45;17.66
30724;BME280;17473;52.286;20.930;2022-09-01T06:18:06;100748.38;;;39.28;17.98
30724;BME280;17473;52.286;20.930;2022-09-01T06:20:39;100750.53;;;39.91;16.94
30724;BME280;17473;52.286;20.930;2022-09-01T06:23:06;100744.75;;;38.58;18.13
30724;BME280;17473;52.286;20.930;2022-09-01T06:25:36;100751.69;;;40.32;17.19
30724;BME280;17473;52.286;20.930;2022-09-01T06:28:04;100747.75;;;40.35;17.24
30724;BME280;17473;52.286;20.930;2022-09-01T06:30:32;100759.78;;;40.88;15.95
30724;BME280;17473;52.286;20.930;2022-09-01T06:33:03;100763.81;;;41.67;15.48
30724;BME280;17473;52.286;20.930;2022-09-01T06:35:43;100756.25;;;41.38;15.37
30724;BME280;17473;52.286;20.930;2022-09-01T06:38:11;100757.41;;;41.86;15.35
30724;BME280;17473;52.286;20.930;2022-09-01T06:40:39;100757.34;;;41.47;16.11
30724;BME280;17473;52.286;20.930;2022-09-01T06:43:08;100767.28;;;41.59;15.54
30724;BME280;17473;52.286;20.930;2022-09-01T06:45:45;100763.75;;;41.57;15.48
30724;BME280;17473;52.286;20.930;2022-09-01T06:48:21;100764.72;;;40.84;15.99
30724;BME280;17473;52.286;20.930;2022-09-01T06:50:49;100770.06;;;41.59;15.25
30724;BME280;17473;52.286;20.930;2022-09-01T06:53:37;100764.31;;;41.91;15.39
30724;BME280;17473;52.286;20.930;2022-09-01T06:56:11;100758.22;;;42.57;14.71
30724;BME280;17473;52.286;20.930;2022-09-01T06:58:41;100766.91;;;41.42;15.61
30724;BME280;17473;52.286;20.930;2022-09-01T07:01:19;100757.66;;;39.38;17.38
30724;BME280;17473;52.286;20.930;2022-09-01T07:03:50;100755.38;;;38.98;17.39
30724;BME280;17473;52.286;20.930;2022-09-01T07:06:20;100759.53;;;38.57;17.51
30724;BME280;17473;52.286;20.930;2022-09-01T07:09:10;100756.94;;;40.03;16.50
30724;BME280;17473;52.286;20.930;2022-09-01T07:11:47;100766.41;;;39.78;17.26
30724;BME280;17473;52.286;20.930;2022-09-01T07:14:34;100767.31;;;36.22;19.93
30724;BME280;17473;52.286;20.930;2022-09-01T07:17:21;100762.09;;;35.77;20.74
30724;BME280;17473;52.286;20.930;2022-09-01T07:19:49;100756.28;;;38.03;19.38
30724;BME280;17473;52.286;20.930;2022-09-01T07:22:17;100761.94;;;36.48;20.39
30724;BME280;17473;52.286;20.930;2022-09-01T07:25:04;100759.41;;;39.17;18.24
30724;BME280;17473;52.286;20.930;2022-09-01T07:27:43;100766.06;;;39.48;17.83
30724;BME280;17473;52.286;20.930;2022-09-01T07:30:47;100766.91;;;37.59;18.89
30724;BME280;17473;52.286;20.930;2022-09-01T07:33:42;100753.72;;;38.37;18.79
30724;BME280;17473;52.286;20.930;2022-09-01T07:36:43;100761.44;;;39.26;17.95
30724;BME280;17473;52.286;20.930;2022-09-01T07:39:30;100766.50;;;39.87;17.93
30724;BME280;17473;52.286;20.930;2022-09-01T07:42:18;100767.69;;;39.62;17.55
30724;BME280;17473;52.286;20.930;2022-09-01T07:45:10;100762.78;;;38.86;17.93
30724;BME280;17473;52.286;20.930;2022-09-01T07:47:54;100763.97;;;37.86;19.30
30724;BME280;17473;52.286;20.930;2022-09-01T07:50:22;100755.22;;;37.93;19.18
30724;BME280;17473;52.286;20.930;2022-09-01T07:53:06;100762.44;;;39.25;18.54
30724;BME280;17473;52.286;20.930;2022-09-01T07:55:41;100762.78;;;39.09;18.13
30724;BME280;17473;52.286;20.930;2022-09-01T07:58:11;100760.66;;;39.24;17.66
30724;BME280;17473;52.286;20.930;2022-09-01T08:00:41;100766.94;;;39.49;18.09
30724;BME280;17473;52.286;20.930;2022-09-01T08:03:13;100765.81;;;37.36;19.71
30724;BME280;17473;52.286;20.930;2022-09-01T08:05:40;100758.41;;;34.91;21.44
30724;BME280;17473;52.286;20.930;2022-09-01T08:08:07;100761.19;;;33.82;22.50
30724;BME280;17473;52.286;20.930;2022-09-01T08:10:54;100760.13;;;31.58;25.36
30724;BME280;17473;52.286;20.930;2022-09-01T08:13:31;100762.41;;;30.69;25.72
30724;BME280;17473;52.286;20.930;2022-09-01T08:16:07;100761.66;;;31.26;25.38
30724;BME280;17473;52.286;20.930;2022-09-01T08:18:44;100752.25;;;32.44;23.74
30724;BME280;17473;52.286;20.930;2022-09-01T08:21:16;100762.63;;;33.74;22.71
30724;BME280;17473;52.286;20.930;2022-09-01T08:23:44;100757.63;;;32.46;23.82
30724;BME280;17473;52.286;20.930;2022-09-01T08:26:15;100759.75;;;32.58;24.20
30724;BME280;17473;52.286;20.930;2022-09-01T08:28:43;100763.81;;;33.02;23.55
30724;BME280;17473;52.286;20.930;2022-09-01T08:31:15;100766.38;;;33.89;22.51
30724;BME280;17473;52.286;20.930;2022-09-01T08:33:45;100762.25;;;32.09;23.86
30724;BME280;17473;52.286;20.930;2022-09-01T08:36:15;100747.38;;;31.00;24.83
30724;BME280;17473;52.286;20.930;2022-09-01T08:38:49;100760.47;;;30.91;25.63
30724;BME280;17473;52.286;20.930;2022-09-01T08:41:42;100758.06;;;30.85;25.78
30724;BME280;17473;52.286;20.930;2022-09-01T08:47:09;100745.91;;;31.90;24.82
30724;BME280;17473;52.286;20.930;2022-09-01T08:49:41;100749.91;;;31.63;25.07
30724;BME280;17473;52.286;20.930;2022-09-01T08:53:02;100760.06;;;29.72;27.02
30724;BME280;17473;52.286;20.930;2022-09-01T08:55:42;100765.06;;;29.37;27.67
30724;BME280;17473;52.286;20.930;2022-09-01T08:58:16;100763.03;;;29.42;27.67
30724;BME280;17473;52.286;20.930;2022-09-01T09:00:49;100755.59;;;30.16;26.93
30724;BME280;17473;52.286;20.930;2022-09-01T09:07:00;100749.22;;;30.59;26.19
30724;BME280;17473;52.286;20.930;2022-09-01T09:09:50;100756.31;;;29.03;26.85
30724;BME280;17473;52.286;20.930;2022-09-01T09:15:46;100742.50;;;27.78;28.87
30724;BME280;17473;52.286;20.930;2022-09-01T09:18:49;100753.94;;;26.98;29.29
30724;BME280;17473;52.286;20.930;2022-09-01T09:21:45;100748.84;;;26.86;29.66
30724;BME280;17473;52.286;20.930;2022-09-01T09:27:26;100747.16;;;27.45;29.17
30724;BME280;17473;52.286;20.930;2022-09-01T09:32:41;100739.78;;;29.10;28.02
30724;BME280;17473;52.286;20.930;2022-09-01T09:35:45;100741.41;;;30.07;26.52
30724;BME280;17473;52.286;20.930;2022-09-01T09:41:19;100727.34;;;29.74;26.17
30724;BME280;17473;52.286;20.930;2022-09-01T09:44:24;100728.06;;;29.79;26.75
30724;BME280;17473;52.286;20.930;2022-09-01T09:46:52;100725.06;;;29.63;27.04
30724;BME280;17473;52.286;20.930;2022-09-01T09:49:29;100734.81;;;29.91;26.57
30724;BME280;17473;52.286;20.930;2022-09-01T09:54:58;100737.16;;;29.78;25.55
30724;BME280;17473;52.286;20.930;2022-09-01T09:57:26;100739.34;;;29.46;25.64
30724;BME280;17473;52.286;20.930;2022-09-01T10:00:04;100747.53;;;29.20;26.00
30724;BME280;17473;52.286;20.930;2022-09-01T10:02:37;100738.25;;;29.02;26.23
30724;BME280;17473;52.286;20.930;2022-09-01T10:08:35;100740.72;;;28.06;27.91
30724;BME280;17473;52.286;20.930;2022-09-01T10:11:04;100741.47;;;28.88;27.16
30724;BME280;17473;52.286;20.930;2022-09-01T10:13:34;100738.91;;;29.09;26.94
30724;BME280;17473;52.286;20.930;2022-09-01T10:16:10;100732.28;;;29.86;26.12
30724;BME280;17473;52.286;20.930;2022-09-01T10:18:47;100731.84;;;30.19;25.71
30724;BME280;17473;52.286;20.930;2022-09-01T10:21:25;100734.66;;;30.38;26.26
30724;BME280;17473;52.286;20.930;2022-09-01T10:23:54;100731.22;;;30.76;25.98
30724;BME280;17473;52.286;20.930;2022-09-01T10:26:42;100731.41;;;30.08;24.68
30724;BME280;17473;52.286;20.930;2022-09-01T10:29:19;100734.09;;;29.63;25.46
30724;BME280;17473;52.286;20.930;2022-09-01T10:31:48;100735.44;;;29.05;26.47
30724;BME280;17473;52.286;20.930;2022-09-01T10:34:17;100726.91;;;28.66;27.38
30724;BME280;17473;52.286;20.930;2022-09-01T10:36:46;100730.28;;;29.22;26.77
30724;BME280;17473;52.286;20.930;2022-09-01T10:39:22;100722.09;;;29.91;26.54
30724;BME280;17473;52.286;20.930;2022-09-01T10:42:00;100735.00;;;29.64;25.62
30724;BME280;17473;52.286;20.930;2022-09-01T10:44:37;100734.47;;;29.54;25.40
30724;BME280;17473;52.286;20.930;2022-09-01T10:47:35;100729.81;;;29.34;26.13
30724;BME280;17473;52.286;20.930;2022-09-01T10:50:28;100734.81;;;29.69;25.81
30724;BME280;17473;52.286;20.930;2022-09-01T10:53:05;100722.25;;;30.10;25.13
30724;BME280;17473;52.286;20.930;2022-09-01T10:55:50;100728.28;;;29.50;25.91
30724;BME280;17473;52.286;20.930;2022-09-01T11:04:21;100724.34;;;29.35;26.26
30724;BME280;17473;52.286;20.930;2022-09-01T11:07:04;100712.47;;;29.38;25.97
30724;BME280;17473;52.286;20.930;2022-09-01T11:09:42;100721.41;;;28.15;27.70
30724;BME280;17473;52.286;20.930;2022-09-01T11:20:33;100713.91;;;28.49;28.41
30724;BME280;17473;52.286;20.930;2022-09-01T11:23:30;100721.78;;;28.56;26.28
30724;BME280;17473;52.286;20.930;2022-09-01T11:26:47;100715.81;;;28.97;27.73
30724;BME280;17473;52.286;20.930;2022-09-01T11:30:00;100719.50;;;27.32;29.61
30724;BME280;17473;52.286;20.930;2022-09-01T11:33:22;100723.63;;;26.51;30.94
30724;BME280;17473;52.286;20.930;2022-09-01T11:36:28;100731.94;;;26.43;30.86
30724;BME280;17473;52.286;20.930;2022-09-01T11:39:42;100730.31;;;26.00;30.52
30724;BME280;17473;52.286;20.930;2022-09-01T11:51:46;100729.53;;;26.32;29.77
30724;BME280;17473;52.286;20.930;2022-09-01T11:54:14;100721.97;;;26.78;29.16
30724;BME280;17473;52.286;20.930;2022-09-01T11:56:41;100727.84;;;26.61;29.48
30724;BME280;17473;52.286;20.930;2022-09-01T11:59:08;100728.38;;;26.05;29.08
30724;BME280;17473;52.286;20.930;2022-09-01T12:01:37;100714.97;;;25.62;28.68
30724;BME280;17473;52.286;20.930;2022-09-01T12:04:24;100724.13;;;25.14;30.01
30724;BME280;17473;52.286;20.930;2022-09-01T12:06:58;100732.59;;;24.96;30.36
30724;BME280;17473;52.286;20.930;2022-09-01T12:09:45;100722.63;;;25.43;30.47
30724;BME280;17473;52.286;20.930;2022-09-01T12:12:34;100737.28;;;25.31;30.98
30724;BME280;17473;52.286;20.930;2022-09-01T12:15:25;100732.75;;;24.88;31.93
30724;BME280;17473;52.286;20.930;2022-09-01T12:18:23;100740.47;;;24.60;31.06
30724;BME280;17473;52.286;20.930;2022-09-01T12:20:52;100742.47;;;24.48;31.96
30724;BME280;17473;52.286;20.930;2022-09-01T12:26:08;100734.06;;;24.68;31.78
30724;BME280;17473;52.286;20.930;2022-09-01T12:28:36;100723.09;;;24.76;31.10
30724;BME280;17473;52.286;20.930;2022-09-01T12:31:15;100718.53;;;25.24;30.88
30724;BME280;17473;52.286;20.930;2022-09-01T12:33:44;100709.50;;;25.25;31.56
30724;BME280;17473;52.286;20.930;2022-09-01T12:36:26;100704.97;;;25.25;31.13
30724;BME280;17473;52.286;20.930;2022-09-01T12:39:21;100716.25;;;25.02;29.92
30724;BME280;17473;52.286;20.930;2022-09-01T12:45:06;100695.16;;;25.21;29.60
30724;BME280;17473;52.286;20.930;2022-09-01T12:53:00;100706.72;;;24.85;29.85
30724;BME280;17473;52.286;20.930;2022-09-01T12:55:33;100695.25;;;24.74;30.37
30724;BME280;17473;52.286;20.930;2022-09-01T12:58:22;100696.91;;;24.33;30.40
30724;BME280;17473;52.286;20.930;2022-09-01T13:01:02;100684.94;;;24.48;31.63
30724;BME280;17473;52.286;20.930;2022-09-01T13:03:31;100687.09;;;24.29;31.39
30724;BME280;17473;52.286;20.930;2022-09-01T13:06:02;100687.78;;;23.87;31.39
30724;BME280;17473;52.286;20.930;2022-09-01T13:08:33;100692.91;;;23.46;31.97
30724;BME280;17473;52.286;20.930;2022-09-01T13:11:07;100695.69;;;23.38;32.41
30724;BME280;17473;52.286;20.930;2022-09-01T13:13:37;100695.50;;;23.52;32.60
30724;BME280;17473;52.286;20.930;2022-09-01T13:16:04;100700.34;;;23.28;33.43
30724;BME280;17473;52.286;20.930;2022-09-01T13:18:41;100701.41;;;23.10;33.90
30724;BME280;17473;52.286;20.930;2022-09-01T13:21:30;100702.25;;;23.19;33.04
30724;BME280;17473;52.286;20.930;2022-09-01T13:23:58;100707.38;;;23.37;33.25
30724;BME280;17473;52.286;20.930;2022-09-01T13:26:25;100696.66;;;23.33;34.61
30724;BME280;17473;52.286;20.930;2022-09-01T13:28:52;100705.16;;;23.67;33.29
30724;BME280;17473;52.286;20.930;2022-09-01T13:31:19;100699.50;;;23.83;33.68
30724;BME280;17473;52.286;20.930;2022-09-01T13:33:55;100689.56;;;23.88;32.98
30724;BME280;17473;52.286;20.930;2022-09-01T13:36:42;100700.16;;;24.02;32.63
30724;BME280;17473;52.286;20.930;2022-09-01T13:39:15;100683.44;;;24.30;32.05
30724;BME280;17473;52.286;20.930;2022-09-01T13:41:44;100692.25;;;24.41;32.26
30724;BME280;17473;52.286;20.930;2022-09-01T13:44:13;100689.75;;;24.30;32.79
30724;BME280;17473;52.286;20.930;2022-09-01T13:46:44;100683.28;;;24.41;32.11
30724;BME280;17473;52.286;20.930;2022-09-01T13:49:31;100691.13;;;24.04;32.35
30724;BME280;17473;52.286;20.930;2022-09-01T13:52:18;100692.13;;;23.97;32.13
30724;BME280;17473;52.286;20.930;2022-09-01T13:54:45;100692.03;;;23.44;33.32
30724;BME280;17473;52.286;20.930;2022-09-01T13:57:13;100693.94;;;23.36;33.93
30724;BME280;17473;52.286;20.930;2022-09-01T13:59:43;100687.06;;;23.11;34.20
30724;BME280;17473;52.286;20.930;2022-09-01T14:02:10;100695.41;;;22.88;34.04
30724;BME280;17473;52.286;20.930;2022-09-01T14:04:37;100692.63;;;22.99;34.16
30724;BME280;17473;52.286;20.930;2022-09-01T14:07:04;100699.22;;;22.69;34.38
30724;BME280;17473;52.286;20.930;2022-09-01T14:09:32;100706.56;;;22.56;34.03
30724;BME280;17473;52.286;20.930;2022-09-01T14:11:59;100703.16;;;22.33;35.13
30724;BME280;17473;52.286;20.930;2022-09-01T14:14:26;100693.19;;;22.49;34.51
30724;BME280;17473;52.286;20.930;2022-09-01T14:17:13;100691.44;;;22.45;34.42
30724;BME280;17473;52.286;20.930;2022-09-01T14:19:40;100700.47;;;22.40;34.92
30724;BME280;17473;52.286;20.930;2022-09-01T14:22:08;100696.13;;;22.23;35.82
30724;BME280;17473;52.286;20.930;2022-09-01T14:24:35;100697.75;;;22.41;35.61
30724;BME280;17473;52.286;20.930;2022-09-01T14:27:06;100687.22;;;22.16;35.19
30724;BME280;17473;52.286;20.930;2022-09-01T14:29:33;100697.09;;;22.13;34.86
30724;BME280;17473;52.286;20.930;2022-09-01T14:32:02;100687.16;;;22.19;35.60
30724;BME280;17473;52.286;20.930;2022-09-01T14:34:29;100697.88;;;22.26;35.50
30724;BME280;17473;52.286;20.930;2022-09-01T14:36:56;100703.09;;;22.46;35.06
30724;BME280;17473;52.286;20.930;2022-09-01T14:39:24;100692.22;;;22.55;34.48
30724;BME280;17473;52.286;20.930;2022-09-01T14:41:51;100689.28;;;22.78;34.66
30724;BME280;17473;52.286;20.930;2022-09-01T14:44:18;100689.97;;;22.93;34.15
30724;BME280;17473;52.286;20.930;2022-09-01T14:46:45;100684.34;;;23.13;33.21
30724;BME280;17473;52.286;20.930;2022-09-01T14:49:13;100691.78;;;22.94;32.40
30724;BME280;17473;52.286;20.930;2022-09-01T14:51:47;100690.00;;;22.94;32.84
30724;BME280;17473;52.286;20.930;2022-09-01T14:54:37;100687.50;;;22.77;32.85
30724;BME280;17473;52.286;20.930;2022-09-01T14:57:05;100689.03;;;22.98;32.88
30724;BME280;17473;52.286;20.930;2022-09-01T14:59:52;100683.91;;;22.75;32.88
30724;BME280;17473;52.286;20.930;2022-09-01T15:02:19;100682.66;;;23.04;32.74
30724;BME280;17473;52.286;20.930;2022-09-01T15:04:47;100693.50;;;23.00;33.23
30724;BME280;17473;52.286;20.930;2022-09-01T15:07:14;100691.78;;;22.92;33.29
30724;BME280;17473;52.286;20.930;2022-09-01T15:09:41;100694.50;;;22.92;33.69
30724;BME280;17473;52.286;20.930;2022-09-01T15:12:08;100687.53;;;22.73;33.63
30724;BME280;17473;52.286;20.930;2022-09-01T15:14:37;100695.19;;;23.08;33.25
30724;BME280;17473;52.286;20.930;2022-09-01T15:17:04;100701.56;;;23.00;33.42
30724;BME280;17473;52.286;20.930;2022-09-01T15:19:32;100692.97;;;22.68;33.73
30724;BME280;17473;52.286;20.930;2022-09-01T15:22:00;100700.38;;;22.47;34.20